NGTA/TRW METAR and TAF weather

Enter ICAO airport designator
Station Type Date Time Source
NGTA METAR 2021/09/25 03:00 UTC NOAA

NGTA 250300Z 09006KT 9999 FEW016CB SCT019 30/25 Q1007


Station Type Date Time Source
NGTA Decoded METAR 2021/09/25 03:00 UTC NOAA

Tarawa, Kiribati (NGTA) 01-21N 172-55E 4M
Sep 24, 2021 - 11:00 PM EDT / 2021.09.25 0300 UTC
Wind: from the E (090 degrees) at 7 MPH (6 KT):0
Visibility: greater than 7 mile(s):0
Sky conditions: partly cloudy
Weather: Cumulonimbus clouds observed
Temperature: 86 F (30 C)
Heat index: 96.8 F (36.0 C):1
Dew Point: 77 F (25 C)
Relative Humidity: 74%
Pressure (altimeter): 29.74 in. Hg (1007 hPa)
ob: NGTA 250300Z 09006KT 9999 FEW016CB SCT019 30/25 Q1007
cycle: 3

Station Type Date Time Source
NGTA TAF 2021/09/24 20:15 UTC NOAA

TAF
AMD TAF
AMD NGTA 242012Z 2420/2518 09010KT 9999 FEW020 PROB30
TEMPO 2420/2502 5000 TSRA BKN015 FEW018CB

Example: see airport list